»·PEaware :: N825LD KASE-KGDV

N825LD :: KASE-KGDV

FLIGHT INFORMATION

Flight Status: Arrived
Operator: Privately registered:
United States
More flights under this callsign
Pilot: Tyler J. (19619)
Aircraft: BEECH AIRCRAFT PREMIER
(PRM1)
More flights by this aircraft type
Origin: KASE Aspen-Pitkin Co/Sardy
United States
Destination: KGDV Dawson Community
United States
More flights between these airports :: More routes between these airports
Route: +LINDZ9 RLG LAR CZI
File this flight plan on PilotEdge
Remarks:
Altitude:
(Current/Filed)
31,000ft
Speed:
(Current/Filed)
450kts
Departed: 10-Aug-19 05:48 PM
Arrived: 10-Aug-19 07:10 PM
Distance/Time
Traveled:
483nm/1:21
Distance/Time
To Go:
Arrived

Flight Plot

Page will automatically refresh every two minutes.

Flight plan parsing failed; only flown route is shown


Map Options




Map Legend


Flown Route
Filed Route
Departure Airport
Arrival Airport
Navaid (VOR, NDB)
Fix

Horizontal Profiles

Position Reports

Time Latitude Longitude Heading Altitude Ground
Speed
10-Aug-19 17:26 39.226246 -106.868740 208 7825ft 0kts
10-Aug-19 17:27 39.226246 -106.868740 208 7825ft 0kts
10-Aug-19 17:28 39.226246 -106.868740 208 7825ft 0kts
10-Aug-19 17:29 39.226246 -106.868740 208 7825ft 0kts
10-Aug-19 17:30 39.226246 -106.868740 208 7825ft 0kts
10-Aug-19 17:31 39.226246 -106.868740 208 7825ft 0kts
10-Aug-19 17:31 39.226246 -106.868740 208 7825ft 0kts
10-Aug-19 17:33 39.226246 -106.868740 208 7825ft 0kts
10-Aug-19 17:34 39.226246 -106.868740 208 7825ft 0kts
10-Aug-19 17:34 39.226246 -106.868740 208 7825ft 0kts
10-Aug-19 17:36 39.226246 -106.868740 208 7825ft 0kts
10-Aug-19 17:36 39.226246 -106.868740 208 7825ft 0kts
10-Aug-19 17:37 39.226246 -106.868740 208 7825ft 0kts
10-Aug-19 17:39 39.226245 -106.868740 208 7825ft 0kts
10-Aug-19 17:39 39.226244 -106.868741 208 7825ft 0kts
10-Aug-19 17:40 39.226243 -106.868742 208 7825ft 0kts
10-Aug-19 17:41 39.226241 -106.868743 208 7825ft 0kts
10-Aug-19 17:42 39.223125 -106.867562 160 7825ft 22kts
10-Aug-19 17:43 39.217993 -106.865113 159 7825ft 9kts
10-Aug-19 17:44 39.215114 -106.863752 160 7825ft 17kts
10-Aug-19 17:45 39.212422 -106.862458 161 7825ft 0kts
10-Aug-19 17:46 39.211857 -106.863484 340 7825ft 0kts
10-Aug-19 17:47 39.236277 -106.874965 343 8196ft 149kts
10-Aug-19 17:48 39.270363 -106.901930 282 10296ft 170kts
10-Aug-19 17:49 39.281575 -106.966595 281 12358ft 194kts
10-Aug-19 17:50 39.299798 -107.033214 292 14396ft 222kts
10-Aug-19 17:51 39.334981 -107.111477 315 16075ft 279kts
10-Aug-19 17:52 39.407989 -107.155961 15 18464ft 339kts
10-Aug-19 17:53 39.447517 -107.054331 91 21506ft 367kts
10-Aug-19 17:54 39.454249 -106.922105 60 24682ft 375kts
10-Aug-19 17:55 39.536728 -106.838706 26 26789ft 394kts
10-Aug-19 17:56 39.634506 -106.777005 23 29448ft 384kts
10-Aug-19 17:57 39.730737 -106.719055 23 31326ft 391kts
10-Aug-19 17:58 39.835754 -106.655772 23 31328ft 439kts
10-Aug-19 17:59 39.950447 -106.586201 23 31354ft 470kts
10-Aug-19 18:00 40.071609 -106.512302 23 31354ft 488kts
10-Aug-19 18:01 40.195938 -106.436115 23 31314ft 500kts
10-Aug-19 18:02 40.322897 -106.357973 23 31293ft 506kts
10-Aug-19 18:03 40.450638 -106.279011 23 31276ft 508kts
10-Aug-19 18:04 40.577756 -106.200102 23 31258ft 509kts
10-Aug-19 18:05 40.705597 -106.120403 23 31241ft 508kts
10-Aug-19 18:06 40.829813 -106.042636 23 31233ft 507kts
10-Aug-19 18:07 40.957741 -105.962205 23 31228ft 506kts
10-Aug-19 18:08 41.083905 -105.882531 23 31220ft 505kts
10-Aug-19 18:09 41.209480 -105.802870 23 31220ft 504kts
10-Aug-19 18:10 41.338670 -105.728809 6 31216ft 498kts
10-Aug-19 18:11 41.475574 -105.741894 346 31216ft 490kts
10-Aug-19 18:12 41.608098 -105.780567 344 31204ft 489kts
10-Aug-19 18:13 41.741608 -105.820048 344 31179ft 490kts
10-Aug-19 18:14 41.874613 -105.857467 345 31169ft 490kts
10-Aug-19 18:15 42.007992 -105.893769 345 31150ft 490kts
10-Aug-19 18:16 42.141642 -105.929582 345 31133ft 490kts
10-Aug-19 18:17 42.275639 -105.965295 345 31139ft 490kts
10-Aug-19 18:18 42.409661 -106.001011 345 31136ft 490kts
10-Aug-19 18:19 42.543456 -106.036749 345 31131ft 490kts
10-Aug-19 18:20 42.676630 -106.072445 345 31123ft 490kts
10-Aug-19 18:21 42.806116 -106.107288 345 31120ft 490kts
10-Aug-19 18:22 42.940672 -106.143646 345 31120ft 490kts
10-Aug-19 18:23 43.074601 -106.179995 345 31121ft 490kts
10-Aug-19 18:24 43.208542 -106.216512 345 31123ft 491kts
10-Aug-19 18:25 43.342664 -106.253239 345 31126ft 491kts
10-Aug-19 18:26 43.476390 -106.290022 345 31127ft 490kts
10-Aug-19 18:27 43.609959 -106.326934 345 31127ft 490kts
10-Aug-19 18:28 43.742966 -106.363863 345 31128ft 490kts
10-Aug-19 18:29 43.876936 -106.401241 345 31127ft 490kts
10-Aug-19 18:30 44.012410 -106.426964 3 31123ft 497kts
10-Aug-19 18:31 44.146614 -106.376772 17 31123ft 502kts
10-Aug-19 18:32 44.276624 -106.308829 18 31119ft 501kts
10-Aug-19 18:33 44.407417 -106.239981 18 31117ft 500kts
10-Aug-19 18:34 44.532864 -106.175262 17 31114ft 500kts
10-Aug-19 18:35 44.662746 -106.109101 17 31116ft 500kts
10-Aug-19 18:36 44.794248 -106.042440 16 31110ft 501kts
10-Aug-19 18:37 44.921881 -105.977526 16 30127ft 454kts
10-Aug-19 18:38 45.036341 -105.919011 16 27792ft 420kts
10-Aug-19 18:39 45.144820 -105.863832 16 25497ft 411kts
10-Aug-19 18:40 45.252114 -105.809142 17 23198ft 408kts
10-Aug-19 18:41 45.358389 -105.754708 18 20906ft 406kts
10-Aug-19 18:42 45.464913 -105.699885 16 18614ft 404kts
10-Aug-19 18:43 45.568643 -105.646219 21 16318ft 399kts
10-Aug-19 18:44 45.672543 -105.592315 21 15961ft 396kts
10-Aug-19 18:45 45.775994 -105.538261 18 15956ft 396kts
10-Aug-19 18:46 45.878789 -105.484459 17 15531ft 380kts
10-Aug-19 18:47 45.968615 -105.437161 18 13401ft 339kts
10-Aug-19 18:48 46.049123 -105.394725 21 11191ft 273kts
10-Aug-19 18:49 46.119378 -105.357661 20 8977ft 266kts
10-Aug-19 18:50 46.188980 -105.320818 20 7027ft 258kts
10-Aug-19 18:51 46.251660 -105.287519 20 6961ft 229kts
10-Aug-19 18:52 46.313389 -105.254629 20 6966ft 242kts
10-Aug-19 18:53 46.373057 -105.222772 20 6968ft 235kts
10-Aug-19 18:54 46.436696 -105.188714 20 6970ft 247kts
10-Aug-19 18:55 46.501523 -105.153940 20 6971ft 248kts
10-Aug-19 18:56 46.565960 -105.119284 20 6972ft 248kts
10-Aug-19 18:57 46.630805 -105.084314 20 6978ft 247kts
10-Aug-19 18:58 46.695527 -105.049330 20 6443ft 249kts
10-Aug-19 18:59 46.757949 -105.015492 20 5976ft 226kts
10-Aug-19 19:00 46.815127 -104.984418 20 5972ft 219kts
10-Aug-19 19:01 46.875159 -104.951727 20 5971ft 243kts
10-Aug-19 19:02 46.939454 -104.916631 20 5941ft 251kts
10-Aug-19 19:03 47.000804 -104.883025 20 5225ft 209kts
10-Aug-19 19:04 47.052340 -104.854844 20 3941ft 183kts
10-Aug-19 19:05 47.097880 -104.849110 324 4009ft 175kts
10-Aug-19 19:06 47.128533 -104.894317 5 3750ft 132kts
10-Aug-19 19:07 47.158853 -104.862946 48 3422ft 138kts
10-Aug-19 19:08 47.146393 -104.817877 129 2576ft 136kts
10-Aug-19 19:09 47.131825 -104.797980 279 2461ft 5kts
10-Aug-19 19:10 47.135916 -104.803059 318 2461ft 34kts
10-Aug-19 19:11 47.136229 -104.808445 221 2461ft 0kts
10-Aug-19 19:12 47.136229 -104.808445 221 2461ft 0kts
10-Aug-19 19:13 47.136229 -104.808445 221 2461ft 0kts
10-Aug-19 19:14 47.136229 -104.808445 221 2461ft 0kts
10-Aug-19 19:15 47.136229 -104.808445 221 2461ft 0kts
10-Aug-19 19:16 47.136229 -104.808445 221 2461ft 0kts
10-Aug-19 19:17 47.136229 -104.808445 221 2461ft 0kts
10-Aug-19 19:18 47.136229 -104.808445 221 2461ft 0kts
10-Aug-19 19:19 47.136229 -104.808445 221 2461ft 0kts
10-Aug-19 19:20 47.136229 -104.808445 221 2461ft 0kts
10-Aug-19 19:21 47.136229 -104.808445 221 2461ft 0kts
10-Aug-19 19:22 47.136229 -104.808445 221 2461ft 0kts
10-Aug-19 19:23 47.136229 -104.808445 221 2461ft 0kts

Navigation Log

Ident Type
Flight plan parsing failed, navigation log unavailable